sensor_id;sensor_type;location;lat;lon;timestamp;P1;durP1;ratioP1;P2;durP2;ratioP2
870;SDS011;422;51.280;7.236;2023-02-03T00:02:12;20.53;;;16.17;;
870;SDS011;422;51.280;7.236;2023-02-03T00:04:40;26.73;;;17.70;;
870;SDS011;422;51.280;7.236;2023-02-03T00:07:08;28.37;;;16.77;;
870;SDS011;422;51.280;7.236;2023-02-03T00:09:37;26.37;;;18.50;;
870;SDS011;422;51.280;7.236;2023-02-03T00:12:04;22.43;;;17.30;;
870;SDS011;422;51.280;7.236;2023-02-03T00:14:33;21.60;;;16.70;;
870;SDS011;422;51.280;7.236;2023-02-03T00:17:02;20.97;;;16.67;;
870;SDS011;422;51.280;7.236;2023-02-03T00:19:29;17.97;;;15.60;;
870;SDS011;422;51.280;7.236;2023-02-03T00:21:56;19.33;;;15.17;;
870;SDS011;422;51.280;7.236;2023-02-03T00:24:24;19.67;;;15.53;;
870;SDS011;422;51.280;7.236;2023-02-03T00:26:51;25.10;;;15.43;;
870;SDS011;422;51.280;7.236;2023-02-03T00:29:18;18.33;;;14.93;;
870;SDS011;422;51.280;7.236;2023-02-03T00:31:51;21.83;;;16.20;;
870;SDS011;422;51.280;7.236;2023-02-03T00:34:18;21.47;;;15.37;;
870;SDS011;422;51.280;7.236;2023-02-03T00:36:46;21.33;;;14.10;;
870;SDS011;422;51.280;7.236;2023-02-03T00:39:13;23.07;;;16.30;;
870;SDS011;422;51.280;7.236;2023-02-03T00:41:40;16.53;;;13.87;;
870;SDS011;422;51.280;7.236;2023-02-03T00:44:07;18.40;;;14.50;;
870;SDS011;422;51.280;7.236;2023-02-03T00:46:35;21.60;;;14.87;;
870;SDS011;422;51.280;7.236;2023-02-03T00:49:04;20.57;;;14.93;;
870;SDS011;422;51.280;7.236;2023-02-03T00:51:31;18.70;;;15.07;;
870;SDS011;422;51.280;7.236;2023-02-03T00:53:59;24.83;;;16.53;;
870;SDS011;422;51.280;7.236;2023-02-03T00:56:26;17.93;;;15.27;;
870;SDS011;422;51.280;7.236;2023-02-03T00:58:53;20.37;;;15.10;;
870;SDS011;422;51.280;7.236;2023-02-03T01:01:20;21.23;;;15.50;;
870;SDS011;422;51.280;7.236;2023-02-03T01:03:47;24.17;;;15.40;;
870;SDS011;422;51.280;7.236;2023-02-03T01:06:16;23.23;;;15.07;;
870;SDS011;422;51.280;7.236;2023-02-03T01:08:45;25.33;;;14.77;;
870;SDS011;422;51.280;7.236;2023-02-03T01:11:14;21.73;;;15.17;;
870;SDS011;422;51.280;7.236;2023-02-03T01:13:42;17.53;;;15.30;;
870;SDS011;422;51.280;7.236;2023-02-03T01:16:10;16.30;;;13.40;;
870;SDS011;422;51.280;7.236;2023-02-03T01:18:39;19.37;;;16.00;;
870;SDS011;422;51.280;7.236;2023-02-03T01:21:07;22.30;;;15.83;;
870;SDS011;422;51.280;7.236;2023-02-03T01:23:36;18.60;;;14.20;;
870;SDS011;422;51.280;7.236;2023-02-03T01:26:04;20.20;;;14.60;;
870;SDS011;422;51.280;7.236;2023-02-03T01:28:32;21.37;;;13.80;;
870;SDS011;422;51.280;7.236;2023-02-03T01:31:07;18.37;;;14.57;;
870;SDS011;422;51.280;7.236;2023-02-03T01:33:35;26.00;;;15.47;;
870;SDS011;422;51.280;7.236;2023-02-03T01:36:05;21.43;;;14.27;;
870;SDS011;422;51.280;7.236;2023-02-03T01:38:33;17.90;;;12.40;;
870;SDS011;422;51.280;7.236;2023-02-03T01:41:03;16.93;;;12.93;;
870;SDS011;422;51.280;7.236;2023-02-03T01:43:33;17.80;;;12.93;;
870;SDS011;422;51.280;7.236;2023-02-03T01:46:03;18.20;;;13.00;;
870;SDS011;422;51.280;7.236;2023-02-03T01:48:37;16.73;;;12.67;;
870;SDS011;422;51.280;7.236;2023-02-03T01:51:04;17.23;;;11.90;;
870;SDS011;422;51.280;7.236;2023-02-03T01:53:32;23.23;;;11.20;;
870;SDS011;422;51.280;7.236;2023-02-03T01:56:01;18.27;;;13.00;;
870;SDS011;422;51.280;7.236;2023-02-03T01:58:30;12.90;;;10.90;;
870;SDS011;422;51.280;7.236;2023-02-03T02:01:01;16.63;;;11.63;;
870;SDS011;422;51.280;7.236;2023-02-03T02:03:30;18.63;;;11.43;;
870;SDS011;422;51.280;7.236;2023-02-03T02:06:01;16.83;;;11.00;;
870;SDS011;422;51.280;7.236;2023-02-03T02:08:30;17.90;;;11.40;;
870;SDS011;422;51.280;7.236;2023-02-03T02:10:58;13.50;;;10.80;;
870;SDS011;422;51.280;7.236;2023-02-03T02:13:27;17.90;;;10.90;;
870;SDS011;422;51.280;7.236;2023-02-03T02:16:00;15.10;;;11.13;;
870;SDS011;422;51.280;7.236;2023-02-03T02:18:38;19.10;;;12.67;;
870;SDS011;422;51.280;7.236;2023-02-03T02:21:37;12.33;;;10.77;;
870;SDS011;422;51.280;7.236;2023-02-03T02:27:35;14.90;;;10.53;;
870;SDS011;422;51.280;7.236;2023-02-03T02:30:56;14.90;;;11.17;;
870;SDS011;422;51.280;7.236;2023-02-03T02:33:42;22.33;;;10.47;;
870;SDS011;422;51.280;7.236;2023-02-03T02:36:17;20.27;;;11.10;;
870;SDS011;422;51.280;7.236;2023-02-03T02:38:54;17.60;;;11.30;;
870;SDS011;422;51.280;7.236;2023-02-03T02:41:30;14.33;;;11.27;;
870;SDS011;422;51.280;7.236;2023-02-03T02:44:06;16.00;;;11.50;;
870;SDS011;422;51.280;7.236;2023-02-03T02:46:40;15.40;;;11.10;;
870;SDS011;422;51.280;7.236;2023-02-03T02:49:13;17.80;;;11.60;;
870;SDS011;422;51.280;7.236;2023-02-03T02:51:45;14.40;;;11.30;;
870;SDS011;422;51.280;7.236;2023-02-03T02:54:14;16.93;;;11.40;;
870;SDS011;422;51.280;7.236;2023-02-03T02:56:47;13.03;;;10.33;;
870;SDS011;422;51.280;7.236;2023-02-03T02:59:18;16.17;;;12.57;;
870;SDS011;422;51.280;7.236;2023-02-03T03:01:45;20.03;;;12.17;;
870;SDS011;422;51.280;7.236;2023-02-03T03:04:14;16.83;;;12.00;;
870;SDS011;422;51.280;7.236;2023-02-03T03:06:47;19.33;;;11.63;;
870;SDS011;422;51.280;7.236;2023-02-03T03:09:19;20.33;;;11.57;;
870;SDS011;422;51.280;7.236;2023-02-03T03:11:50;16.70;;;10.93;;
870;SDS011;422;51.280;7.236;2023-02-03T03:14:20;14.10;;;10.70;;
870;SDS011;422;51.280;7.236;2023-02-03T03:16:52;13.90;;;10.13;;
870;SDS011;422;51.280;7.236;2023-02-03T03:19:25;17.07;;;11.13;;
870;SDS011;422;51.280;7.236;2023-02-03T03:21:58;20.07;;;10.63;;
870;SDS011;422;51.280;7.236;2023-02-03T03:24:28;14.63;;;10.20;;
870;SDS011;422;51.280;7.236;2023-02-03T03:27:07;13.80;;;10.33;;
870;SDS011;422;51.280;7.236;2023-02-03T03:29:39;15.80;;;9.77;;
870;SDS011;422;51.280;7.236;2023-02-03T03:32:09;15.00;;;10.63;;
870;SDS011;422;51.280;7.236;2023-02-03T03:34:38;11.07;;;9.87;;
870;SDS011;422;51.280;7.236;2023-02-03T03:37:07;15.10;;;9.50;;
870;SDS011;422;51.280;7.236;2023-02-03T03:39:43;16.83;;;9.90;;
870;SDS011;422;51.280;7.236;2023-02-03T03:42:18;14.00;;;9.33;;
870;SDS011;422;51.280;7.236;2023-02-03T03:44:50;10.60;;;8.20;;
870;SDS011;422;51.280;7.236;2023-02-03T03:47:22;15.90;;;9.40;;
870;SDS011;422;51.280;7.236;2023-02-03T03:49:55;19.30;;;9.67;;
870;SDS011;422;51.280;7.236;2023-02-03T03:52:26;19.03;;;9.43;;
870;SDS011;422;51.280;7.236;2023-02-03T03:54:58;15.97;;;9.70;;
870;SDS011;422;51.280;7.236;2023-02-03T03:57:28;12.53;;;8.70;;
870;SDS011;422;51.280;7.236;2023-02-03T03:59:59;13.97;;;9.23;;
870;SDS011;422;51.280;7.236;2023-02-03T04:02:29;11.47;;;9.30;;
870;SDS011;422;51.280;7.236;2023-02-03T04:05:01;12.00;;;8.30;;
870;SDS011;422;51.280;7.236;2023-02-03T04:07:36;12.83;;;9.40;;
870;SDS011;422;51.280;7.236;2023-02-03T04:10:04;16.20;;;9.17;;
870;SDS011;422;51.280;7.236;2023-02-03T04:12:47;13.90;;;9.97;;
870;SDS011;422;51.280;7.236;2023-02-03T04:15:14;15.63;;;9.37;;
870;SDS011;422;51.280;7.236;2023-02-03T04:17:42;15.07;;;9.87;;
870;SDS011;422;51.280;7.236;2023-02-03T04:20:11;16.10;;;9.90;;
870;SDS011;422;51.280;7.236;2023-02-03T04:22:39;13.73;;;10.23;;
870;SDS011;422;51.280;7.236;2023-02-03T04:25:06;14.13;;;11.10;;
870;SDS011;422;51.280;7.236;2023-02-03T04:27:34;16.33;;;11.30;;
870;SDS011;422;51.280;7.236;2023-02-03T04:30:02;11.03;;;9.50;;
870;SDS011;422;51.280;7.236;2023-02-03T04:32:30;15.90;;;10.10;;
870;SDS011;422;51.280;7.236;2023-02-03T04:34:59;13.50;;;9.77;;
870;SDS011;422;51.280;7.236;2023-02-03T04:37:28;14.13;;;10.50;;
870;SDS011;422;51.280;7.236;2023-02-03T04:39:56;31.33;;;9.70;;
870;SDS011;422;51.280;7.236;2023-02-03T04:42:23;16.53;;;11.13;;
870;SDS011;422;51.280;7.236;2023-02-03T04:44:51;16.07;;;8.90;;
870;SDS011;422;51.280;7.236;2023-02-03T04:47:18;15.67;;;10.60;;
870;SDS011;422;51.280;7.236;2023-02-03T04:49:46;11.93;;;9.90;;
870;SDS011;422;51.280;7.236;2023-02-03T04:52:13;14.17;;;10.80;;
870;SDS011;422;51.280;7.236;2023-02-03T04:54:42;17.60;;;9.80;;
870;SDS011;422;51.280;7.236;2023-02-03T04:57:09;13.70;;;9.77;;
870;SDS011;422;51.280;7.236;2023-02-03T04:59:36;18.73;;;9.47;;
870;SDS011;422;51.280;7.236;2023-02-03T05:02:03;12.20;;;9.27;;
870;SDS011;422;51.280;7.236;2023-02-03T05:04:32;14.10;;;9.30;;
870;SDS011;422;51.280;7.236;2023-02-03T05:06:59;17.20;;;10.43;;
870;SDS011;422;51.280;7.236;2023-02-03T05:09:27;15.13;;;8.50;;
870;SDS011;422;51.280;7.236;2023-02-03T05:11:55;15.30;;;10.43;;
870;SDS011;422;51.280;7.236;2023-02-03T05:14:23;14.93;;;9.30;;
870;SDS011;422;51.280;7.236;2023-02-03T05:16:50;17.37;;;9.70;;
870;SDS011;422;51.280;7.236;2023-02-03T05:19:17;15.03;;;9.80;;
870;SDS011;422;51.280;7.236;2023-02-03T05:21:44;13.80;;;9.17;;
870;SDS011;422;51.280;7.236;2023-02-03T05:24:11;15.30;;;9.50;;
870;SDS011;422;51.280;7.236;2023-02-03T05:26:38;14.93;;;8.67;;
870;SDS011;422;51.280;7.236;2023-02-03T05:29:07;14.43;;;8.17;;
870;SDS011;422;51.280;7.236;2023-02-03T05:31:36;15.90;;;8.40;;
870;SDS011;422;51.280;7.236;2023-02-03T05:34:03;11.30;;;8.67;;
870;SDS011;422;51.280;7.236;2023-02-03T05:36:30;11.77;;;8.97;;
870;SDS011;422;51.280;7.236;2023-02-03T05:38:57;10.10;;;7.63;;
870;SDS011;422;51.280;7.236;2023-02-03T05:41:24;9.73;;;8.10;;
870;SDS011;422;51.280;7.236;2023-02-03T05:44:10;11.33;;;8.00;;
870;SDS011;422;51.280;7.236;2023-02-03T05:46:38;12.67;;;7.80;;
870;SDS011;422;51.280;7.236;2023-02-03T05:49:05;12.40;;;7.10;;
870;SDS011;422;51.280;7.236;2023-02-03T05:51:32;9.87;;;7.23;;
870;SDS011;422;51.280;7.236;2023-02-03T05:53:59;14.10;;;8.07;;
870;SDS011;422;51.280;7.236;2023-02-03T05:56:26;12.20;;;7.80;;
870;SDS011;422;51.280;7.236;2023-02-03T05:58:54;16.03;;;7.93;;
870;SDS011;422;51.280;7.236;2023-02-03T06:01:22;10.27;;;7.23;;
870;SDS011;422;51.280;7.236;2023-02-03T06:03:49;10.93;;;8.10;;
870;SDS011;422;51.280;7.236;2023-02-03T06:06:16;12.30;;;7.60;;
870;SDS011;422;51.280;7.236;2023-02-03T06:08:44;10.93;;;6.90;;
870;SDS011;422;51.280;7.236;2023-02-03T06:11:11;15.87;;;7.73;;
870;SDS011;422;51.280;7.236;2023-02-03T06:13:38;10.40;;;6.60;;
870;SDS011;422;51.280;7.236;2023-02-03T06:16:05;12.30;;;6.90;;
870;SDS011;422;51.280;7.236;2023-02-03T06:18:34;10.27;;;6.97;;
870;SDS011;422;51.280;7.236;2023-02-03T06:21:01;12.13;;;6.67;;
870;SDS011;422;51.280;7.236;2023-02-03T06:23:29;13.23;;;6.20;;
870;SDS011;422;51.280;7.236;2023-02-03T06:25:56;12.20;;;7.07;;
870;SDS011;422;51.280;7.236;2023-02-03T06:28:24;12.37;;;6.57;;
870;SDS011;422;51.280;7.236;2023-02-03T06:30:51;12.10;;;5.63;;
870;SDS011;422;51.280;7.236;2023-02-03T06:33:21;13.90;;;6.57;;
870;SDS011;422;51.280;7.236;2023-02-03T06:35:49;11.93;;;5.23;;
870;SDS011;422;51.280;7.236;2023-02-03T06:38:16;11.77;;;5.00;;
870;SDS011;422;51.280;7.236;2023-02-03T06:40:45;10.57;;;5.43;;
870;SDS011;422;51.280;7.236;2023-02-03T06:43:12;10.47;;;5.07;;
870;SDS011;422;51.280;7.236;2023-02-03T06:45:39;8.93;;;5.73;;
870;SDS011;422;51.280;7.236;2023-02-03T06:48:06;12.43;;;5.13;;
870;SDS011;422;51.280;7.236;2023-02-03T06:50:34;11.07;;;5.10;;
870;SDS011;422;51.280;7.236;2023-02-03T06:53:02;12.30;;;5.33;;
870;SDS011;422;51.280;7.236;2023-02-03T06:55:29;9.63;;;4.47;;
870;SDS011;422;51.280;7.236;2023-02-03T06:57:56;8.60;;;5.10;;
870;SDS011;422;51.280;7.236;2023-02-03T07:00:24;9.30;;;4.40;;
870;SDS011;422;51.280;7.236;2023-02-03T07:02:54;10.53;;;5.70;;
870;SDS011;422;51.280;7.236;2023-02-03T07:05:22;12.30;;;4.60;;
870;SDS011;422;51.280;7.236;2023-02-03T07:07:50;7.60;;;4.47;;
870;SDS011;422;51.280;7.236;2023-02-03T07:10:19;8.47;;;5.30;;
870;SDS011;422;51.280;7.236;2023-02-03T07:12:46;9.97;;;5.30;;
870;SDS011;422;51.280;7.236;2023-02-03T07:15:14;11.50;;;5.13;;
870;SDS011;422;51.280;7.236;2023-02-03T07:17:42;7.90;;;4.70;;
870;SDS011;422;51.280;7.236;2023-02-03T07:20:11;10.60;;;5.63;;
870;SDS011;422;51.280;7.236;2023-02-03T07:22:38;8.53;;;5.37;;
870;SDS011;422;51.280;7.236;2023-02-03T07:25:08;7.00;;;4.63;;
870;SDS011;422;51.280;7.236;2023-02-03T07:27:36;11.03;;;6.00;;
870;SDS011;422;51.280;7.236;2023-02-03T07:30:04;12.00;;;5.57;;
870;SDS011;422;51.280;7.236;2023-02-03T07:32:31;8.40;;;6.03;;
870;SDS011;422;51.280;7.236;2023-02-03T07:34:58;11.37;;;5.17;;
870;SDS011;422;51.280;7.236;2023-02-03T07:37:26;7.47;;;5.93;;
870;SDS011;422;51.280;7.236;2023-02-03T07:39:53;7.43;;;5.93;;
870;SDS011;422;51.280;7.236;2023-02-03T07:42:20;9.30;;;5.73;;
870;SDS011;422;51.280;7.236;2023-02-03T07:44:49;11.80;;;7.47;;
870;SDS011;422;51.280;7.236;2023-02-03T07:47:16;13.67;;;7.60;;
870;SDS011;422;51.280;7.236;2023-02-03T07:49:44;15.00;;;8.50;;
870;SDS011;422;51.280;7.236;2023-02-03T07:52:11;10.70;;;7.57;;
870;SDS011;422;51.280;7.236;2023-02-03T07:54:38;7.70;;;6.77;;
870;SDS011;422;51.280;7.236;2023-02-03T07:57:05;15.97;;;7.83;;
870;SDS011;422;51.280;7.236;2023-02-03T07:59:33;11.03;;;7.80;;
870;SDS011;422;51.280;7.236;2023-02-03T08:02:01;9.13;;;7.60;;
870;SDS011;422;51.280;7.236;2023-02-03T08:04:29;8.47;;;7.20;;
870;SDS011;422;51.280;7.236;2023-02-03T08:06:56;10.87;;;7.07;;
870;SDS011;422;51.280;7.236;2023-02-03T08:09:23;10.40;;;7.40;;
870;SDS011;422;51.280;7.236;2023-02-03T08:11:50;11.80;;;7.53;;
870;SDS011;422;51.280;7.236;2023-02-03T08:14:18;13.03;;;8.10;;
870;SDS011;422;51.280;7.236;2023-02-03T08:16:45;12.73;;;7.40;;
870;SDS011;422;51.280;7.236;2023-02-03T08:19:14;10.13;;;6.97;;
870;SDS011;422;51.280;7.236;2023-02-03T08:21:41;11.53;;;6.80;;
870;SDS011;422;51.280;7.236;2023-02-03T08:24:08;11.53;;;6.43;;
870;SDS011;422;51.280;7.236;2023-02-03T08:26:36;10.50;;;6.17;;
870;SDS011;422;51.280;7.236;2023-02-03T08:29:03;11.10;;;7.07;;
870;SDS011;422;51.280;7.236;2023-02-03T08:31:30;13.53;;;7.20;;
870;SDS011;422;51.280;7.236;2023-02-03T08:33:57;7.70;;;6.57;;
870;SDS011;422;51.280;7.236;2023-02-03T08:36:26;11.80;;;7.37;;
870;SDS011;422;51.280;7.236;2023-02-03T08:38:53;10.50;;;7.07;;
870;SDS011;422;51.280;7.236;2023-02-03T08:41:20;12.33;;;7.43;;
870;SDS011;422;51.280;7.236;2023-02-03T08:43:47;12.83;;;7.20;;
870;SDS011;422;51.280;7.236;2023-02-03T08:46:15;10.17;;;6.70;;
870;SDS011;422;51.280;7.236;2023-02-03T08:48:42;13.10;;;7.60;;
870;SDS011;422;51.280;7.236;2023-02-03T08:51:09;8.40;;;7.60;;
870;SDS011;422;51.280;7.236;2023-02-03T08:53:39;11.63;;;8.33;;
870;SDS011;422;51.280;7.236;2023-02-03T08:56:06;10.57;;;8.20;;
870;SDS011;422;51.280;7.236;2023-02-03T08:58:35;9.93;;;7.50;;
870;SDS011;422;51.280;7.236;2023-02-03T09:01:06;12.43;;;8.90;;
870;SDS011;422;51.280;7.236;2023-02-03T09:03:34;19.60;;;8.83;;
870;SDS011;422;51.280;7.236;2023-02-03T09:06:02;11.40;;;10.20;;
870;SDS011;422;51.280;7.236;2023-02-03T09:08:30;11.23;;;9.30;;
870;SDS011;422;51.280;7.236;2023-02-03T09:10:59;10.80;;;9.70;;
870;SDS011;422;51.280;7.236;2023-02-03T09:13:26;16.57;;;10.60;;
870;SDS011;422;51.280;7.236;2023-02-03T09:15:53;17.00;;;10.37;;
870;SDS011;422;51.280;7.236;2023-02-03T09:18:20;15.77;;;12.23;;
870;SDS011;422;51.280;7.236;2023-02-03T09:20:47;14.87;;;11.57;;
870;SDS011;422;51.280;7.236;2023-02-03T09:23:15;15.03;;;11.40;;
870;SDS011;422;51.280;7.236;2023-02-03T09:25:42;13.90;;;10.50;;
870;SDS011;422;51.280;7.236;2023-02-03T09:28:18;15.47;;;12.70;;
870;SDS011;422;51.280;7.236;2023-02-03T09:30:45;13.93;;;11.83;;
870;SDS011;422;51.280;7.236;2023-02-03T09:33:12;15.73;;;12.07;;
870;SDS011;422;51.280;7.236;2023-02-03T09:35:39;14.03;;;11.97;;
870;SDS011;422;51.280;7.236;2023-02-03T09:38:07;13.60;;;11.80;;
870;SDS011;422;51.280;7.236;2023-02-03T09:40:34;17.80;;;12.90;;
870;SDS011;422;51.280;7.236;2023-02-03T09:43:07;15.43;;;12.53;;
870;SDS011;422;51.280;7.236;2023-02-03T09:45:45;15.90;;;12.60;;
870;SDS011;422;51.280;7.236;2023-02-03T09:48:13;16.27;;;12.70;;
870;SDS011;422;51.280;7.236;2023-02-03T09:50:46;14.93;;;12.50;;
870;SDS011;422;51.280;7.236;2023-02-03T09:53:18;17.10;;;13.50;;
870;SDS011;422;51.280;7.236;2023-02-03T09:55:53;17.40;;;13.37;;
870;SDS011;422;51.280;7.236;2023-02-03T09:58:22;17.27;;;13.80;;
870;SDS011;422;51.280;7.236;2023-02-03T10:00:54;14.17;;;12.00;;
870;SDS011;422;51.280;7.236;2023-02-03T10:03:25;18.73;;;13.47;;
870;SDS011;422;51.280;7.236;2023-02-03T10:06:02;17.60;;;14.03;;
870;SDS011;422;51.280;7.236;2023-02-03T10:08:45;18.37;;;13.03;;
870;SDS011;422;51.280;7.236;2023-02-03T10:11:34;18.70;;;13.37;;
870;SDS011;422;51.280;7.236;2023-02-03T10:14:18;15.73;;;12.90;;
870;SDS011;422;51.280;7.236;2023-02-03T10:17:02;15.03;;;13.43;;
870;SDS011;422;51.280;7.236;2023-02-03T10:19:44;14.23;;;12.60;;
870;SDS011;422;51.280;7.236;2023-02-03T10:22:17;16.53;;;12.90;;
870;SDS011;422;51.280;7.236;2023-02-03T10:24:49;16.70;;;13.43;;
870;SDS011;422;51.280;7.236;2023-02-03T10:27:19;16.70;;;12.60;;
870;SDS011;422;51.280;7.236;2023-02-03T10:29:52;16.33;;;13.13;;
870;SDS011;422;51.280;7.236;2023-02-03T10:32:23;19.27;;;14.17;;
870;SDS011;422;51.280;7.236;2023-02-03T10:34:53;18.27;;;13.83;;
870;SDS011;422;51.280;7.236;2023-02-03T10:37:24;21.83;;;15.23;;
870;SDS011;422;51.280;7.236;2023-02-03T10:39:55;18.43;;;14.53;;
870;SDS011;422;51.280;7.236;2023-02-03T10:42:24;21.93;;;15.30;;
870;SDS011;422;51.280;7.236;2023-02-03T10:45:14;16.63;;;14.00;;
870;SDS011;422;51.280;7.236;2023-02-03T10:47:43;21.60;;;15.70;;
870;SDS011;422;51.280;7.236;2023-02-03T10:50:14;17.47;;;15.23;;
870;SDS011;422;51.280;7.236;2023-02-03T10:52:44;18.43;;;14.93;;
870;SDS011;422;51.280;7.236;2023-02-03T10:57:55;19.97;;;15.60;;
870;SDS011;422;51.280;7.236;2023-02-03T11:00:27;20.40;;;17.10;;
870;SDS011;422;51.280;7.236;2023-02-03T11:02:56;17.80;;;15.90;;
870;SDS011;422;51.280;7.236;2023-02-03T11:05:27;16.73;;;14.97;;
870;SDS011;422;51.280;7.236;2023-02-03T11:07:54;23.53;;;16.00;;
870;SDS011;422;51.280;7.236;2023-02-03T11:10:30;20.87;;;15.60;;
870;SDS011;422;51.280;7.236;2023-02-03T11:15:59;21.20;;;15.87;;
870;SDS011;422;51.280;7.236;2023-02-03T11:18:39;18.00;;;14.57;;
870;SDS011;422;51.280;7.236;2023-02-03T11:21:13;22.03;;;16.73;;
870;SDS011;422;51.280;7.236;2023-02-03T11:23:48;17.83;;;14.90;;
870;SDS011;422;51.280;7.236;2023-02-03T11:26:19;24.97;;;15.60;;
870;SDS011;422;51.280;7.236;2023-02-03T11:28:50;17.50;;;15.57;;
870;SDS011;422;51.280;7.236;2023-02-03T11:31:22;23.60;;;16.27;;
870;SDS011;422;51.280;7.236;2023-02-03T11:34:01;21.60;;;15.60;;
870;SDS011;422;51.280;7.236;2023-02-03T11:36:31;21.20;;;15.57;;
870;SDS011;422;51.280;7.236;2023-02-03T11:39:10;23.20;;;16.20;;
870;SDS011;422;51.280;7.236;2023-02-03T11:41:50;21.00;;;15.37;;
870;SDS011;422;51.280;7.236;2023-02-03T11:44:19;18.80;;;16.77;;
870;SDS011;422;51.280;7.236;2023-02-03T11:46:55;23.07;;;15.70;;
870;SDS011;422;51.280;7.236;2023-02-03T11:52:40;21.43;;;17.37;;
870;SDS011;422;51.280;7.236;2023-02-03T11:55:19;18.93;;;16.13;;
870;SDS011;422;51.280;7.236;2023-02-03T11:57:59;18.90;;;15.47;;
870;SDS011;422;51.280;7.236;2023-02-03T12:00:39;17.90;;;15.57;;
870;SDS011;422;51.280;7.236;2023-02-03T12:03:25;21.10;;;15.83;;
870;SDS011;422;51.280;7.236;2023-02-03T12:06:12;23.73;;;16.73;;
870;SDS011;422;51.280;7.236;2023-02-03T12:09:16;19.97;;;16.00;;
870;SDS011;422;51.280;7.236;2023-02-03T12:11:57;20.20;;;15.97;;
870;SDS011;422;51.280;7.236;2023-02-03T12:14:42;21.93;;;16.50;;
870;SDS011;422;51.280;7.236;2023-02-03T12:17:21;18.80;;;15.47;;
870;SDS011;422;51.280;7.236;2023-02-03T12:22:55;19.57;;;15.90;;
870;SDS011;422;51.280;7.236;2023-02-03T12:25:32;21.50;;;15.20;;
870;SDS011;422;51.280;7.236;2023-02-03T12:28:10;18.63;;;15.00;;
870;SDS011;422;51.280;7.236;2023-02-03T12:30:52;20.90;;;14.70;;
870;SDS011;422;51.280;7.236;2023-02-03T12:33:25;19.10;;;15.40;;
870;SDS011;422;51.280;7.236;2023-02-03T12:35:58;18.53;;;14.67;;
870;SDS011;422;51.280;7.236;2023-02-03T12:38:33;24.07;;;15.00;;
870;SDS011;422;51.280;7.236;2023-02-03T12:41:04;19.80;;;14.70;;
870;SDS011;422;51.280;7.236;2023-02-03T12:43:37;20.17;;;13.93;;
870;SDS011;422;51.280;7.236;2023-02-03T12:46:14;22.30;;;13.63;;
870;SDS011;422;51.280;7.236;2023-02-03T12:48:47;19.20;;;13.03;;
870;SDS011;422;51.280;7.236;2023-02-03T12:51:23;16.30;;;12.70;;
870;SDS011;422;51.280;7.236;2023-02-03T12:53:58;17.10;;;12.60;;
870;SDS011;422;51.280;7.236;2023-02-03T12:56:32;14.80;;;13.10;;
870;SDS011;422;51.280;7.236;2023-02-03T12:59:08;19.00;;;12.20;;
870;SDS011;422;51.280;7.236;2023-02-03T13:01:41;16.67;;;12.10;;
870;SDS011;422;51.280;7.236;2023-02-03T13:04:17;16.37;;;12.07;;
870;SDS011;422;51.280;7.236;2023-02-03T13:06:52;15.60;;;11.80;;
870;SDS011;422;51.280;7.236;2023-02-03T13:09:26;15.40;;;12.13;;
870;SDS011;422;51.280;7.236;2023-02-03T13:11:58;16.67;;;10.70;;
870;SDS011;422;51.280;7.236;2023-02-03T13:14:31;20.03;;;11.40;;
870;SDS011;422;51.280;7.236;2023-02-03T13:17:04;14.40;;;11.07;;
870;SDS011;422;51.280;7.236;2023-02-03T13:19:38;18.00;;;11.47;;
870;SDS011;422;51.280;7.236;2023-02-03T13:22:11;13.77;;;11.80;;
870;SDS011;422;51.280;7.236;2023-02-03T13:24:40;19.53;;;14.00;;
870;SDS011;422;51.280;7.236;2023-02-03T13:30:19;16.63;;;11.60;;
870;SDS011;422;51.280;7.236;2023-02-03T13:33:19;17.70;;;10.47;;
870;SDS011;422;51.280;7.236;2023-02-03T13:36:11;17.90;;;11.23;;
870;SDS011;422;51.280;7.236;2023-02-03T13:39:03;17.27;;;11.30;;
870;SDS011;422;51.280;7.236;2023-02-03T13:41:46;16.03;;;9.90;;
870;SDS011;422;51.280;7.236;2023-02-03T13:44:17;14.33;;;10.57;;
870;SDS011;422;51.280;7.236;2023-02-03T13:46:46;14.20;;;10.73;;
870;SDS011;422;51.280;7.236;2023-02-03T13:49:19;12.47;;;10.30;;
870;SDS011;422;51.280;7.236;2023-02-03T13:51:50;17.87;;;8.67;;
870;SDS011;422;51.280;7.236;2023-02-03T13:54:22;13.93;;;9.23;;
870;SDS011;422;51.280;7.236;2023-02-03T13:56:53;15.00;;;8.83;;
870;SDS011;422;51.280;7.236;2023-02-03T13:59:27;13.07;;;8.93;;
870;SDS011;422;51.280;7.236;2023-02-03T14:04:56;10.47;;;8.53;;
870;SDS011;422;51.280;7.236;2023-02-03T14:07:27;11.20;;;8.73;;
870;SDS011;422;51.280;7.236;2023-02-03T14:12:55;12.70;;;8.20;;
870;SDS011;422;51.280;7.236;2023-02-03T14:21:07;14.20;;;8.47;;
870;SDS011;422;51.280;7.236;2023-02-03T14:23:44;10.90;;;6.87;;
870;SDS011;422;51.280;7.236;2023-02-03T14:26:19;10.67;;;7.90;;
870;SDS011;422;51.280;7.236;2023-02-03T14:28:54;15.13;;;8.33;;
870;SDS011;422;51.280;7.236;2023-02-03T14:31:21;17.07;;;8.60;;
870;SDS011;422;51.280;7.236;2023-02-03T14:36:40;13.27;;;8.27;;
870;SDS011;422;51.280;7.236;2023-02-03T14:42:26;14.93;;;7.80;;
870;SDS011;422;51.280;7.236;2023-02-03T14:45:09;11.70;;;7.50;;
870;SDS011;422;51.280;7.236;2023-02-03T14:47:48;8.30;;;6.67;;
870;SDS011;422;51.280;7.236;2023-02-03T14:50:32;17.30;;;5.53;;
870;SDS011;422;51.280;7.236;2023-02-03T14:53:13;14.83;;;5.07;;
870;SDS011;422;51.280;7.236;2023-02-03T14:56:03;14.83;;;6.30;;
870;SDS011;422;51.280;7.236;2023-02-03T14:58:43;13.07;;;5.00;;
870;SDS011;422;51.280;7.236;2023-02-03T15:04:21;17.70;;;5.53;;
870;SDS011;422;51.280;7.236;2023-02-03T15:06:50;12.20;;;4.43;;
870;SDS011;422;51.280;7.236;2023-02-03T15:09:26;15.83;;;5.47;;
870;SDS011;422;51.280;7.236;2023-02-03T15:11:56;20.53;;;5.50;;
870;SDS011;422;51.280;7.236;2023-02-03T15:14:26;17.30;;;4.90;;
870;SDS011;422;51.280;7.236;2023-02-03T15:16:56;18.60;;;6.07;;
870;SDS011;422;51.280;7.236;2023-02-03T15:19:26;19.30;;;5.23;;
870;SDS011;422;51.280;7.236;2023-02-03T15:21:57;14.73;;;5.63;;
870;SDS011;422;51.280;7.236;2023-02-03T15:24:24;14.10;;;5.83;;
870;SDS011;422;51.280;7.236;2023-02-03T15:26:52;12.83;;;5.30;;
870;SDS011;422;51.280;7.236;2023-02-03T15:29:22;23.00;;;5.70;;
870;SDS011;422;51.280;7.236;2023-02-03T15:31:58;16.10;;;4.17;;
870;SDS011;422;51.280;7.236;2023-02-03T15:34:34;17.87;;;6.27;;
870;SDS011;422;51.280;7.236;2023-02-03T15:37:06;14.93;;;5.33;;
870;SDS011;422;51.280;7.236;2023-02-03T15:39:41;14.13;;;4.80;;
870;SDS011;422;51.280;7.236;2023-02-03T15:42:16;19.93;;;5.80;;
870;SDS011;422;51.280;7.236;2023-02-03T15:44:51;15.33;;;6.47;;
870;SDS011;422;51.280;7.236;2023-02-03T15:47:25;23.07;;;6.10;;
870;SDS011;422;51.280;7.236;2023-02-03T15:49:59;15.33;;;6.03;;
870;SDS011;422;51.280;7.236;2023-02-03T15:52:30;18.30;;;6.27;;
870;SDS011;422;51.280;7.236;2023-02-03T15:55:06;16.90;;;5.40;;
870;SDS011;422;51.280;7.236;2023-02-03T15:57:40;12.67;;;5.87;;
870;SDS011;422;51.280;7.236;2023-02-03T16:00:23;23.27;;;7.30;;
870;SDS011;422;51.280;7.236;2023-02-03T16:02:55;17.80;;;5.87;;
870;SDS011;422;51.280;7.236;2023-02-03T16:05:25;31.07;;;7.27;;
870;SDS011;422;51.280;7.236;2023-02-03T16:07:54;27.10;;;8.00;;
870;SDS011;422;51.280;7.236;2023-02-03T16:10:26;20.20;;;7.13;;
870;SDS011;422;51.280;7.236;2023-02-03T16:13:09;19.30;;;7.00;;
870;SDS011;422;51.280;7.236;2023-02-03T16:15:56;23.47;;;7.90;;
870;SDS011;422;51.280;7.236;2023-02-03T16:18:25;18.77;;;7.33;;
870;SDS011;422;51.280;7.236;2023-02-03T16:20:53;20.90;;;7.30;;
870;SDS011;422;51.280;7.236;2023-02-03T16:23:21;20.77;;;8.33;;
870;SDS011;422;51.280;7.236;2023-02-03T16:26:01;20.70;;;7.97;;
870;SDS011;422;51.280;7.236;2023-02-03T16:28:41;16.63;;;9.07;;